Data Entry Status of Reservoirs as on 28/09/2021 (Average Data)
S.NO Unit Name District Reservoir Name Current Capacity
in T.M.C.
Current Level
in Feet
Inflow
in Cusecs
Outflow
in Cusecs
Last Entry Time
Updated
1 CE , Godavari Delta Systems, HQ : Dowlaiswaram East Godavari Godavari Delta System 2.66 43.4 359010.0 359617.0 28/09/2021 06:00
2 CE , Godavari Delta Systems, HQ : Dowlaiswaram East Godavari YELERU 15.25 267.49 14280.0 100.0 28/09/2021 06:00
3 CE , Krishna Delta System, HQ : Vijayawada Guntur Dr.KLRS Pulichintala 32.59 165.75 66917.0 70770.0 28/09/2021 06:00
4 CE , Krishna Delta System, HQ : Vijayawada Krishna Krishna Delta System 3.07 57.05 95351.0 95351.0 28/09/2021 06:00
5 CE , North Coast, HQ : Visakhapatnam Srikakulam Madduvalasa 2.709 210.99 58116.0 55922.0 28/09/2021 06:00
6 CE , North Coast, HQ : Visakhapatnam Srikakulam Vamshadhara 0.038 112.99 22809.0 22809.0 28/09/2021 06:00
7 CE , North Coast, HQ : Visakhapatnam Vizianagaram Peddagadda 0.89 699.57 955.0 0.0 28/09/2021 10:36
8 CE , North Coast, HQ : Visakhapatnam Vizianagaram Thatipudi Reservoir 2.885 293.34 7690.0 50.48 28/09/2021 10:35
9 CE , North Coast, HQ : Visakhapatnam Vizianagaram Thotapalli Reservoir 1.656 339.76 5624.0 4663.0 28/09/2021 06:00
10 CE , North Coast, HQ : Visakhapatnam Vizianagaram Vengalarayasagar Project 1.192 522.31 1200.0 1200.0 28/09/2021 10:33
11 CE , (Projects) Irrigation, Kadapa, HQ : Kadapa Kadapa Annamayya 2.094 666.12 545.0 722.0 28/09/2021 10:38
12 CE , (Projects) Irrigation, Kadapa, HQ : Kadapa Kadapa SPVB Reservoir(Brahmamgari Mattam) 7.057 662.229 1199.0 741.0 28/09/2021 06:00
13 CE , (Projects) Irrigation, Kadapa, HQ : Kadapa Kadapa Veligallu Project 4.613 1377.72 20.0 20.0 28/09/2021 10:40
14 CE , (Projects) Irrigation, Kurnool, HQ : Kurnool Kurnool ALAGANURU BALANCING RESERVOIR 0.0 0.0 0.0 0.0 28/09/2021 07:00
15 CE , (Projects) Irrigation, Kurnool, HQ : Kurnool Kurnool Gajuladinne Project 2.651 1230.4406 60.0 10.0 28/09/2021 06:00
16 CE , (Projects) Irrigation, Kurnool, HQ : Kurnool Kurnool Gorakallu 10.569 844.16 55.0 55.0 28/09/2021 06:00
17 CE , (Projects) Irrigation, Kurnool, HQ : Kurnool Kurnool SRISAILAM 200.2 882.2 74064.0 63377.0 28/09/2021 06:00
18 CE , (Projects) Irrigation, Kurnool, HQ : Kurnool Kurnool Sunkesula 0.99 956.04 6207.0 6207.0 28/09/2021 06:00
19 CE , (Projects) Irrigation, Kurnool, HQ : Kurnool Kurnool Veligodu Balancing Reservoir 16.44 868.04 4600.0 4580.0 28/09/2021 06:00
20 CE , (Projects) Ongole, HQ : Ongole Guntur NAGARJUNA SAGAR 310.25 589.4 52830.0 59747.0 28/09/2021 06:00
21 CE , (Projects) Ongole, HQ : Ongole Prakasam Gundlakamma Project 3.446 78.65 4711.0 2637.0 28/09/2021 07:00
22 CE , TGP Tirupathi, HQ : Tirupati Nellore Gandipalem 0.757 470.2 0.0 0.0 28/09/2021 10:36
23 CE , TGP Tirupathi, HQ : Tirupati Nellore KANDALERU 57.14 271.34 0.0 545.0 28/09/2021 06:00
24 CE , TGP Tirupathi, HQ : Tirupati Nellore SOMASILA 73.9 328.53 5532.0 11689.0 28/09/2021 06:00
25 ENC Irrigation, HQ: Vijayawada Ananthapur PABR 4.309 1423.21 815.0 130.0 28/09/2021 08:00
26 ENC Irrigation, HQ: Vijayawada Kadapa Chitravathi Balancing Reservoir 9.1154 974.64 0.0 90.0 28/09/2021 06:00
27 Flood Monitoring Cell, Vijayawada Karnataka ALMATTI 128.01 1704.69 16512.0 18549.0 28/09/2021 06:00
28 Flood Monitoring Cell, Vijayawada Karnataka NARAYANAPUR 37.446 1614.76 17184.0 19774.0 28/09/2021 06:00
29 Flood Monitoring Cell, Vijayawada Karnataka TUNGABHADRA 100.09 1632.8 8931.0 10712.0 28/09/2021 06:00
30 Flood Monitoring Cell, Vijayawada Maharastra Jaikwad 91.26 1519.15 17481.0 242.0 28/09/2021 06:00
31 Flood Monitoring Cell, Vijayawada Maharastra Ujjaini 111.77 1628.48 3705.0 347.0 28/09/2021 06:00
32 Flood Monitoring Cell, Vijayawada Telangana JURALA 7.84 1042.0 65019.0 77206.0 28/09/2021 06:00
33 Flood Monitoring Cell, Vijayawada Telangana Sri Pada Yellampally 16.51 481.14 319026.0 353047.0 28/09/2021 06:00
34 Flood Monitoring Cell, Vijayawada Telangana SRI RAM SAGAR 81.7 1089.4 191365.0 252882.0 28/09/2021 06:00
Not Updated
35 Boggulavagu 0.393 159.3 0.0 30.0 19/09/2020 08:49
36 CE , Godavari Delta Systems, HQ : Dowlaiswaram East Godavari Maddigedda Reservoir Project 0.13 593.18 35.0 0.0 13/07/2019 07:00
37 CE , Godavari Delta Systems, HQ : Dowlaiswaram East Godavari Pampa Reservoir 0.0167 82.5 30.0 0.0 17/07/2019 10:45
38 CE , Godavari Delta Systems, HQ : Dowlaiswaram East Godavari Subbareddy Sagar 0.0538 255.9 111.0 0.0 13/07/2019 07:00
39 CE , Godavari Delta Systems, HQ : Dowlaiswaram Krishna GONELAVAGU RESERVOIR 0.732 335.61 0.0 66.0 08/02/2019 06:00
40 CE , Godavari Delta Systems, HQ : Dowlaiswaram West Godavari Kovvada Kalva 0.178 282.8 60.0 15.0 21/09/2019 06:00
41 CE , Godavari Delta Systems, HQ : Dowlaiswaram West Godavari Tammileru 0.749 349.59 495.0 90.0 27/09/2021 12:19
42 CE , Godavari Delta Systems, HQ : Dowlaiswaram West Godavari Yerra Kalva 3.0036 269.37 2102.0 100.0 27/09/2021 12:17
43 CE , Krishna Delta System, HQ : Vijayawada Krishna Muniyeru Anicut 0.01 217.81 100.0 0.0 30/01/2019 06:00
44 CE Minor, Vijayawada Ananthapur Upper Pennar Anicut 0.56 1745.2 0.0 0.0 27/09/2021 11:35
45 CE Minor, Vijayawada Chittor KALYANI DAM 0.079 842.65 0.0 3.1 05/09/2019 09:10
46 CE Minor, Vijayawada Chittor Pedderu 0.56 1579.35 0.0 5.78 17/09/2020 06:00
47 CE Minor, Vijayawada Nellore Nellore Anicut 0.01 10.6 0.0 0.0 05/10/2018 06:00
48 CE Minor, Vijayawada West Godavari Jalleru 0.31 711.29 0.0 0.0 31/10/2018 16:00
49 CE , North Coast, HQ : Visakhapatnam Srikakulam Narayanapuram Anicut 0.0 88.0 50.0 50.0 02/05/2019 07:00
50 CE , North Coast, HQ : Visakhapatnam Visahakapatnam Konam Reservoir Project 0.085 297.496 2.0 30.0 27/03/2019 06:00
51 CE , North Coast, HQ : Visakhapatnam Visahakapatnam Mahadrigadda Reservoir 0.935 59.9 0.0 142.0 24/09/2021 06:00
52 CE , North Coast, HQ : Visakhapatnam Visahakapatnam Raiwada Reservoir Project 1.698 358.34 717.0 200.0 14/09/2021 06:00
53 CE , North Coast, HQ : Visakhapatnam Visahakapatnam Tenneti Viswanadham Pedderu 0.3364 448.16272 576.0 576.0 25/09/2021 06:00
54 CE , North Coast, HQ : Visakhapatnam Visahakapatnam Thandava Reservoir Project 3.36 374.0 380.0 0.0 16/07/2020 06:00
55 CE , North Coast, HQ : Visakhapatnam Vizianagaram Andra Reservoir 0.00589 439.81 0.0 0.0 26/04/2019 07:20
56 CE , North Coast, HQ : Visakhapatnam Vizianagaram Vottigedda Reservoir 0.83278 397.7 474.0 425.0 27/09/2021 06:00
57 CE, (Projects) HNSS, Ananthapur Ananthapur Bhairavani Tippa 0.0 1633.0 0.0 0.0 27/09/2021 11:35
58 CE, (Projects) HNSS, Ananthapur Ananthapur CHAGALLU BALANCING RESERVOIR 0.0 0.0 0.0 0.0 06/06/2019 08:25
59 CE, (Projects) HNSS, Ananthapur Ananthapur CHENNARAYA SWAMI GUDI PROJECT NA NA NA NA NA
60 CE, (Projects) HNSS, Ananthapur Ananthapur Jeedipalli Reservoir 1.467 1520.2 920.0 800.0 24/09/2019 06:00
61 CE, (Projects) HNSS, Ananthapur Ananthapur Mid Pennar 2.024 1177.1 811.0 47.0 04/09/2020 08:00
62 CE, (Projects) HNSS, Ananthapur Ananthapur Yogivemana Reservoir Project 0.336 1238.32 102.0 0.0 10/06/2019 07:15
63 CE, (Projects) HNSS, Ananthapur Kurnool krishnagiri 0.152 1209.664 30.0 30.0 09/11/2019 06:00
64 CE , (Projects) Irrigation, Kadapa, HQ : Kadapa Kadapa Badvel Tank NA NA NA NA NA
65 CE , (Projects) Irrigation, Kadapa, HQ : Kadapa Kadapa Buggavanka Reservoir 0.042 570.54 0.0 0.0 16/07/2020 08:00
66 CE , (Projects) Irrigation, Kadapa, HQ : Kadapa Kadapa GANDIKOTA RESERVOIR 6.66 205.35 7893.0 3060.0 29/08/2019 07:00
67 CE , (Projects) Irrigation, Kadapa, HQ : Kadapa Kadapa Jerrikona Reservoir NA NA NA NA NA
68 CE , (Projects) Irrigation, Kadapa, HQ : Kadapa Kadapa Mylavaram reservoir 0.948 624.573 0.0 159.0 02/01/2019 10:00
69 CE , (Projects) Irrigation, Kadapa, HQ : Kadapa Kadapa Paidipalem Reservoir 1.606 858.25 0.0 200.0 26/02/2019 07:00
70 CE , (Projects) Irrigation, Kadapa, HQ : Kadapa Kadapa Subsidary Reservoir II of TGP Main Canal 1.1098 705.053 0.0 20.0 27/12/2018 07:30
71 CE , (Projects) Irrigation, Kadapa, HQ : Kadapa Kadapa Subsidary Reservoir I of TGP Main Canal 0.47 691.73 0.0 30.0 04/07/2020 10:40
72 CE , (Projects) Irrigation, Kadapa, HQ : Kadapa Kadapa Upper Sagileru Anicut 0.0 0.0 0.0 0.0 26/10/2018 06:00
73 CE , (Projects) Irrigation, Kurnool, HQ : Kurnool Kurnool Owk Reservoir 3.09 735.015 5884.0 6678.0 14/10/2019 06:00
74 CE , (Projects) Irrigation, Kurnool, HQ : Kurnool Kurnool Varadaraja Swamy Gudi Project 0.0142 1157.32 0.0 0.0 14/11/2018 10:00
75 CE , (Projects) Irrigation, Kurnool, HQ : Kurnool Kurnool ZURRERU RESERVOIR NA NA NA NA NA
76 CE , (Projects) Ongole, HQ : Ongole Prakasam Buggavagu Resrvoir 2.61 465.9 2915.0 2027.0 27/03/2019 06:00
77 CE , (Projects) Ongole, HQ : Ongole Prakasam Cumbum Tank 1.521 659.78 0.0 100.0 25/09/2021 16:16
78 CE , (Projects) Ongole, HQ : Ongole Prakasam Mopadu Reservoir 0.86 317.55 0.0 0.0 24/09/2021 10:17
79 CE , (Projects) Ongole, HQ : Ongole Prakasam Paleru Bitragunta Anicut System 0.0 0.0 0.0 0.0 03/03/2019 07:00
80 CE , (Projects) Ongole, HQ : Ongole Prakasam Rallapadu Reservoir 0.31925 123.75 0.0 0.0 27/09/2021 12:18
81 CE , (Projects) Ongole, HQ : Ongole Prakasam Ramatheertham Balancing Reservoir 0.359 76.1 42.0 243.0 10/11/2016 08:00
82 CE , (Projects) Ongole, HQ : Ongole Prakasam Veeraraghavunikota Anicut System 0.0 0.0 0.0 0.0 10/07/2019 07:00
83 CE , TGP Tirupathi, HQ : Tirupati Bahuda Reservoir Project 0.056 1988.2 0.0 0.0 17/08/2020 11:00
84 CE , TGP Tirupathi, HQ : Tirupati Chittor Araniar Project 0.026 253.15 0.0 0.0 27/06/2019 06:00
85 CE , TGP Tirupathi, HQ : Tirupati Chittor Krishnapuram Reservoir 0.072 679.6 38.0 0.0 22/11/2018 18:00
86 CE , TGP Tirupathi, HQ : Tirupati Chittor Mallimadugu Reservoir Project 0.107 362.5 180.0 40.0 01/11/2019 06:00
87 CE , TGP Tirupathi, HQ : Tirupati Nellore Kalangi Reservoir Project 0.032 209.0 0.0 2.0 23/09/2021 06:00
88 CE , TGP Tirupathi, HQ : Tirupati Nellore Kanigir Reservoir 2.06 95.22 1185.0 1160.0 12/12/2018 10:00
89 CE , TGP Tirupathi, HQ : Tirupati Nellore Nellore Tank 0.317 64.22 150.0 0.0 24/11/2018 07:00
90 CE , TGP Tirupathi, HQ : Tirupati Nellore Survepalli Reservoir 0.4 19.72 100.0 200.0 11/03/2019 08:51
91 Enc Dowaleshwaram East Godavari Suram Palem 0.24826 343.01 187.1 64.85 09/09/2021 06:00
92 ENC Irrigation, HQ: Vijayawada Nellore Swarnamukhi Barrage 0.0 19.78 0.0 0.0 02/10/2018 14:00
93 ENC PIP East Godavari Bhupati Palem 0.6 667.32 0.0 1033.0 15/08/2020 12:43
94 ENC PIP East Godavari Musurimalli 0.62 379.0 500.0 500.0 27/09/2021 12:18

Data Entry Status of Reservoirs as on 28/09/2021 (Instant Data)
S.NO Unit District Reservoir Name Current Capacity
in T.M.C.
Current Level
in Feet
Inflow
in Cusecs
Outflow
in Cusecs
Last Entry Time
Updated
1 CE , Krishna Delta System, HQ : Vijayawada Guntur Dr.KLRS Pulichintala 32.6287 165.78 60690.0 60290.0 28/09/2021 08:00
2 CE , North Coast, HQ : Visakhapatnam Vizianagaram Thotapalli Reservoir 1.747 340.32 10010.0 5670.0 28/09/2021 12:00
3 CE , (Projects) Irrigation, Kadapa, HQ : Kadapa Kadapa SPVB Reservoir(Brahmamgari Mattam) 7.057 662.229 1199.0 737.0 28/09/2021 07:00
4 CE , (Projects) Irrigation, Kurnool, HQ : Kurnool Kurnool SRISAILAM 200.6588 882.3 90464.0 13034.0 28/09/2021 09:00
5 CE , (Projects) Ongole, HQ : Ongole Guntur NAGARJUNA SAGAR 310.551 589.5 58073.0 58073.0 28/09/2021 09:00
Not Updated
6 Boggulavagu NA NA NA NA NA
7 CE , Godavari Delta Systems, HQ : Dowlaiswaram East Godavari Maddigedda Reservoir Project 0.0 0.0 0.0 0.0 17/12/2018 07:00
8 CE , Godavari Delta Systems, HQ : Dowlaiswaram East Godavari Pampa Reservoir 0.015 82.1 0.0 0.0 08/07/2019 08:00
9 CE , Godavari Delta Systems, HQ : Dowlaiswaram East Godavari Subbareddy Sagar 0.0253 247.31 8.0 0.0 17/12/2018 07:00
10 CE , Godavari Delta Systems, HQ : Dowlaiswaram East Godavari YELERU 12.46 259.62 11.0 269.0 02/05/2019 07:00
11 CE , Godavari Delta Systems, HQ : Dowlaiswaram Krishna GONELAVAGU RESERVOIR 609.0 337.61 0.0 0.0 30/11/2018 06:00
12 CE , Godavari Delta Systems, HQ : Dowlaiswaram West Godavari Kovvada Kalva 0.178 282.8 60.0 15.0 21/09/2019 12:00
13 CE , Godavari Delta Systems, HQ : Dowlaiswaram West Godavari Tammileru 0.15 330.72 0.0 0.0 04/08/2019 00:00
14 CE , Godavari Delta Systems, HQ : Dowlaiswaram West Godavari Yerra Kalva 1.75 261.64 70.0 70.0 24/09/2019 06:00
15 CE , Krishna Delta System, HQ : Vijayawada Krishna Muniyeru Anicut 0.03 221.3 928.0 678.0 02/09/2018 15:03
16 CE Minor, Vijayawada Ananthapur Upper Pennar Anicut NA NA NA NA NA
17 CE Minor, Vijayawada Chittor KALYANI DAM NA NA NA NA NA
18 CE Minor, Vijayawada Chittor Pedderu 0.56 1579.35 0.0 5.78 17/09/2020 08:00
19 CE Minor, Vijayawada Nellore Nellore Anicut 0.0 19.78 0.0 0.0 03/09/2018 01:00
20 CE Minor, Vijayawada West Godavari Jalleru 0.447 709.646 0.0 0.0 20/09/2019 06:00
21 CE , North Coast, HQ : Visakhapatnam Srikakulam Madduvalasa 2.821 211.42 2891.0 710.0 23/09/2021 06:00
22 CE , North Coast, HQ : Visakhapatnam Srikakulam Narayanapuram Anicut 0.0 88.0 50.0 50.0 02/05/2019 07:00
23 CE , North Coast, HQ : Visakhapatnam Visahakapatnam Konam Reservoir Project 0.737 329.148 60.0 117.0 08/11/2020 06:00
24 CE , North Coast, HQ : Visakhapatnam Visahakapatnam Mahadrigadda Reservoir 0.62 56.2 0.0 0.0 25/08/2021 06:00
25 CE , North Coast, HQ : Visakhapatnam Visahakapatnam Raiwada Reservoir Project 3.19 373.26 8500.0 8992.0 13/10/2020 22:00
26 CE , North Coast, HQ : Visakhapatnam Visahakapatnam Tenneti Viswanadham Pedderu 0.21675 441.7651 17.0 0.0 24/12/2018 11:00
27 CE , North Coast, HQ : Visakhapatnam Visahakapatnam Thandava Reservoir Project 4.3 379.4 12000.0 13000.0 13/10/2020 07:00
28 CE , North Coast, HQ : Visakhapatnam Vizianagaram Andra Reservoir 0.00589 439.81 0.0 0.0 26/04/2019 07:00
29 CE , North Coast, HQ : Visakhapatnam Vizianagaram Peddagadda 0.255 674.93 5.0 5.0 18/02/2019 10:00
30 CE , North Coast, HQ : Visakhapatnam Vizianagaram Thatipudi Reservoir 2.9 293.5 140.48 140.48 10/11/2016 10:44
31 CE , North Coast, HQ : Visakhapatnam Vizianagaram Vengalarayasagar Project 0.56 510.5611 0.0 0.0 02/07/2019 10:00
32 CE , North Coast, HQ : Visakhapatnam Vizianagaram Vottigedda Reservoir 0.10052 366.5 0.0 0.0 07/02/2021 07:00
33 CE, (Projects) HNSS, Ananthapur Ananthapur Bhairavani Tippa 38.03 1633.0 0.0 0.0 07/06/2020 00:00
34 CE, (Projects) HNSS, Ananthapur Ananthapur CHAGALLU BALANCING RESERVOIR NA NA NA NA NA
35 CE, (Projects) HNSS, Ananthapur Ananthapur CHENNARAYA SWAMI GUDI PROJECT NA NA NA NA NA
36 CE, (Projects) HNSS, Ananthapur Ananthapur Jeedipalli Reservoir 1.467 1520.2 920.0 800.0 24/09/2019 06:00
37 CE, (Projects) HNSS, Ananthapur Ananthapur Mid Pennar 0.912 1160.2 787.0 5.0 14/08/2020 14:00
38 CE, (Projects) HNSS, Ananthapur Ananthapur Yogivemana Reservoir Project 0.55 1246.65 0.0 0.0 25/09/2018 06:00
39 CE, (Projects) HNSS, Ananthapur Kurnool krishnagiri NA NA NA NA NA
40 CE , (Projects) Irrigation, Kadapa, HQ : Kadapa Kadapa Annamayya 0.56513 637.467 0.0 4.0 30/01/2019 08:00
41 CE , (Projects) Irrigation, Kadapa, HQ : Kadapa Kadapa Buggavanka Reservoir 0.042 570.54 0.0 0.0 16/07/2020 08:00
42 CE , (Projects) Irrigation, Kadapa, HQ : Kadapa Kadapa GANDIKOTA RESERVOIR 4.2 203.73 0.0 320.0 10/12/2018 08:00
43 CE , (Projects) Irrigation, Kadapa, HQ : Kadapa Kadapa Jerrikona Reservoir NA NA NA NA NA
44 CE , (Projects) Irrigation, Kadapa, HQ : Kadapa Kadapa Mylavaram reservoir 2.251 635.039 0.0 369.0 15/11/2018 17:00
45 CE , (Projects) Irrigation, Kadapa, HQ : Kadapa Kadapa Paidipalem Reservoir NA NA NA NA NA
46 CE , (Projects) Irrigation, Kadapa, HQ : Kadapa Kadapa Subsidary Reservoir II of TGP Main Canal 0.7583 714.44 0.0 0.0 21/02/2019 07:00
47 CE , (Projects) Irrigation, Kadapa, HQ : Kadapa Kadapa Subsidary Reservoir I of TGP Main Canal 0.48157 711.07 0.0 0.0 21/02/2019 07:00
48 CE , (Projects) Irrigation, Kadapa, HQ : Kadapa Kadapa Upper Sagileru Anicut NA NA NA NA NA
49 CE , (Projects) Irrigation, Kadapa, HQ : Kadapa Kadapa Veligallu Project 3.623 1367.07 5092.0 0.0 26/11/2020 16:00
50 CE , (Projects) Irrigation, Kurnool, HQ : Kurnool Kurnool ALAGANURU BALANCING RESERVOIR 1.854 860.836 0.0 150.0 19/03/2020 07:00
51 CE , (Projects) Irrigation, Kurnool, HQ : Kurnool Kurnool Gajuladinne Project 2.4255 1229.0955 0.0 140.0 09/05/2021 06:00
52 CE , (Projects) Irrigation, Kurnool, HQ : Kurnool Kurnool Gorakallu 3.8541 790.45 9179.0 31.0 01/08/2021 18:00
53 CE , (Projects) Irrigation, Kurnool, HQ : Kurnool Kurnool Owk Reservoir 4.03 743.35 878.0 900.0 21/11/2018 08:00
54 CE , (Projects) Irrigation, Kurnool, HQ : Kurnool Kurnool Sunkesula 1.11 957.02 0.0 104.0 18/07/2020 06:00
55 CE , (Projects) Irrigation, Kurnool, HQ : Kurnool Kurnool Varadaraja Swamy Gudi Project 0.0142 1157.32 0.0 0.0 14/11/2018 12:00
56 CE , (Projects) Irrigation, Kurnool, HQ : Kurnool Kurnool Veligodu Balancing Reservoir 12.835 860.07 0.0 4160.0 09/10/2018 08:00
57 CE , (Projects) Irrigation, Kurnool, HQ : Kurnool Kurnool ZURRERU RESERVOIR 0.034 844.5 0.0 0.0 02/11/2018 13:00
58 CE , (Projects) Ongole, HQ : Ongole Prakasam Buggavagu Resrvoir 2.562 466.4 0.0 0.0 12/11/2018 06:00
59 CE , (Projects) Ongole, HQ : Ongole Prakasam Cumbum Tank 2.952 666.67 0.0 50.0 24/10/2020 09:00
60 CE , (Projects) Ongole, HQ : Ongole Prakasam Gundlakamma Project 1.418 69.94 0.0 0.0 19/02/2019 13:00
61 CE , (Projects) Ongole, HQ : Ongole Prakasam Mopadu Reservoir 0.0 0.0 0.0 0.0 05/07/2019 09:00
62 CE , (Projects) Ongole, HQ : Ongole Prakasam Paleru Bitragunta Anicut System 0.0 0.0 0.0 0.0 03/03/2019 06:00
63 CE , (Projects) Ongole, HQ : Ongole Prakasam Rallapadu Reservoir NA NA NA NA NA
64 CE , (Projects) Ongole, HQ : Ongole Prakasam Ramatheertham Balancing Reservoir 0.802 263.12 1144.0 243.0 24/04/2019 07:00
65 CE , (Projects) Ongole, HQ : Ongole Prakasam Veeraraghavunikota Anicut System 0.0 0.0 0.0 0.0 10/07/2019 08:00
66 CE , TGP Tirupathi, HQ : Tirupati Bahuda Reservoir Project 0.114 1996.0 0.0 0.0 07/03/2019 11:00
67 CE , TGP Tirupathi, HQ : Tirupati Chittor Araniar Project NA NA NA NA NA
68 CE , TGP Tirupathi, HQ : Tirupati Chittor Krishnapuram Reservoir 0.072 679.6 38.0 0.0 22/11/2018 07:00
69 CE , TGP Tirupathi, HQ : Tirupati Chittor Mallimadugu Reservoir Project 0.073 360.06 31.0 20.0 27/10/2020 06:00
70 CE , TGP Tirupathi, HQ : Tirupati Nellore Gandipalem 0.55 21.02 0.0 0.0 03/09/2018 00:00
71 CE , TGP Tirupathi, HQ : Tirupati Nellore Kalangi Reservoir Project 0.0 0.0 0.0 0.0 17/12/2018 08:00
72 CE , TGP Tirupathi, HQ : Tirupati Nellore KANDALERU 10.348 215.234 0.0 2433.0 11/02/2019 07:00
73 CE , TGP Tirupathi, HQ : Tirupati Nellore Kanigir Reservoir 0.18 87.7 0.0 0.0 03/09/2018 12:00
74 CE , TGP Tirupathi, HQ : Tirupati Nellore Nellore Tank 0.0 0.0 0.0 0.0 03/09/2018 10:00
75 CE , TGP Tirupathi, HQ : Tirupati Nellore SOMASILA 12.846 279.64 0.0 3555.0 26/02/2019 10:00
76 CE , TGP Tirupathi, HQ : Tirupati Nellore Survepalli Reservoir 0.55 21.02 0.0 0.0 06/10/2018 11:00
77 Enc Dowaleshwaram East Godavari Suram Palem 0.25882 343.5 66.42 66.42 06/12/2016 16:00
78 ENC Irrigation, HQ: Vijayawada Ananthapur PABR 1.853 1400.24 0.0 125.0 23/04/2020 09:00
79 ENC Irrigation, HQ: Vijayawada Kadapa Chitravathi Balancing Reservoir 2.3848 948.118 0.0 40.0 03/02/2019 10:00
80 ENC Irrigation, HQ: Vijayawada Nellore Swarnamukhi Barrage 0.002 19.78 0.0 0.0 19/12/2018 07:00
81 ENC PIP East Godavari Bhupati Palem 0.65 669.29 148.124 148.124 12/12/2018 09:00
82 ENC PIP East Godavari Musurimalli 0.356 369.75 0.0 150.0 26/12/2016 08:00
83 Flood Monitoring Cell, Vijayawada Telangana Sri Pada Yellampally NA NA NA NA NA
84 Flood Monitoring Cell, Vijayawada Telangana SRI RAM SAGAR NA NA NA NA NA

Username Password

Latest Data of levels of Major Reservoirs in the State of Andhra Pradesh

S.NO.
Reservoir
Full Reservoir Level in Ft.
Date and Time
Level in feet
Present Storage
in T.M.C.
Instant Inflow in Cusecs
Instant Outflow in Cusecs
1 SRISAILAM 885.00 28-09-2021 9:00 AM 882.3 200.659 90,464 13,034
2 NAGARJUNA SAGAR 590.00 28-09-2021 9:00 AM 589.5 310.551 58,073 58,073
Particulars Of Major Reservoirs As On 28/09/2021 @ 06:00 A.M. (Average Readings over past 24 Hours)
Total Storage Cap. of A.P. Reservoirs
Present Storage in T.M.C.
Flood Cushion in T.M.C
Last Year As On
28/09/2020 Storage in T.M.C
S.NO Reservoir Gross Storage
at FRL in T.M.C.
Present Storage
in T.M.C.
Average Inflow
in Cusecs
Average OutFlow
in Cusecs
Flood Cushion
in T.M.C
Last Year As On
28/09/2020
Storage in T.M.C
Basin Name
1 SRI RAM SAGAR 90.313 81.7 1,91,365 2,52,882 8.613 85.36 Godavari Basin
2 JAIKWAD 102.732 91.26 17,481 242 11.472 101.12 Godavari Basin
3 ALMATTI 129.721 128.01 16,512 18,549 1.711 128.19 Krishna Basin
4 NARAYANAPUR 37.646 37.446 17,184 19,774 0.2 36.67 Krishna Basin
5 JURALA 9.657 7.84 65,019 77,206 1.817 7.7 Krishna Basin
6 TUNGABHADRA 100.86 100.09 8,931 10,712 0.77 100.86 Krishna Basin
7 SRISAILAM 215.807 200.2 74,064 63,377 15.607 210.03 Krishna Basin
8 NAGARJUNA SAGAR 312.045 310.25 52,830 59,747 1.795 310.252 Krishna Basin
9 UJJAINI 117.24 111.77 3,705 347 5.47 117.24 Krishna Basin
10 DR.KLRS PULICHINTALA 45.77 32.59 66,917 70,770 13.18 44.79 Krishna Basin
11 YELERU 24.1 15.25 14,280 100 8.85 22.52 Other Basin
12 SOMASILA 78 73.9 5,532 11,689 4.1 74.28 Pennar Basin
13 KANDALERU 68.03 57.14 0 545 10.89 45.99 Pennar Basin
14 VELIGODU BALANCING RESERVOIR 16.95 16.44 4,600 4,580 0.51 15.74 Pennar Basin
15 CHITRAVATHI BALANCING RESERVOIR 10 9.115 0 90 0.885 6.7328 Pennar Basin
Status of Medium Irrigation Projects as on 28/09/2021
S.NO Medium Project Gross Storage
at FRL in T.M.C.
Present Storage
in T.M.C.
Average Inflow
in Cusecs
Average Outflow
in Cusecs
Flood Cushion
in T.M.C
Basin Name
1 MUSURIMALLI 1.6 0 NA NA 1.6 Godavari Basin
2 THATIPUDI RESERVOIR 3.33 2.885 7690 50 0.445 Gosthani Basin
3 CUMBUM TANK 2.952 0 NA NA 2.952 Gundlakamma Basin
4 BHAIRAVANI TIPPA 2.001 0 NA NA 2.001 Krishna Basin
5 GAJULADINNE PROJECT 4.5 2.651 60 10 1.849 Krishna Basin
6 RALLAPADU RESERVOIR 1.106 0 NA NA 1.106 Manneru Basin
7 MOPADU RESERVOIR 2.154 0 NA NA 2.154 Manneru Basin
8 GANDIPALEM 1.88 0.757 0 0 1.123 Manneru Basin
9 MADDUVALASA 3.373 2.709 58116 55922 0.664 Nagavali Basin
10 VENGALARAYASAGAR PROJECT 1.683 1.192 1200 1200 0.491 Nagavali Basin
11 PEDDAGADDA 1.07 0.89 955 0 0.18 Nagavali Basin
12 ANNAMAYYA 2.231 2.094 545 722 0.137 Pennar Basin
13 VELIGALLU PROJECT 4.64 4.613 20 20 0.027 Pennar Basin
14 UPPER PENNAR ANICUT 1.811 0 NA NA 1.811 Pennar Basin
15 RAIWADA RESERVOIR PROJECT 3.6 0 NA NA 3.6 Sarada Basin
16 TAMMILERU 3 0 NA NA 3 Tammileru Basin
17 YERRA KALVA 4.43 0 NA NA 4.43 Yerra Kalva Basin

Daily Canal Releases of Major Projects for the Past Three Days Report

Select Project:
S.NO.
Off Take name
Design Discharge
Relaese in cusecs
28/09/2021 27/09/2021 26/09/2021
1 K.E.Main Canal 10600 4043 NA NA
2 Bandar Regulator 5007 1607 NA NA
3 K.E.B.Canal 2050 702 NA NA
4 Bandar Direct 3035 905 NA NA
5 Eluru Regulator 1643 120 NA NA
6 Ryves Regulator 4250 1802 NA NA
7 Kankipadu Lock/Weir 1650 884 NA NA
8 Upper Pulleru / Lower Pulleru 1200 151 NA NA
9 East Side Channel 457 84 NA NA
10 Nidumolu Lock/Weir 325 169 NA NA
11 Head of Ramarajupalem Channel 370 NA NA NA
12 Veeranki Lock/Weir 637 418 NA NA
13 Bheemandi Channel 287 306 NA NA
14 Meduru Channel 228 284 NA NA
15 Valluripalem Lock/Weir 1739 696 NA NA
16 Gurivindapalli Lock /Weir 1727 648 NA NA
17 Nimagada Lock/Weir 1470 567 NA NA
18 9th Channel 385 160 NA NA
19 Nagayalanka Head Regulator 540 225 NA NA
20 Koduru Channel 460 175 NA NA
21 Komatigunta Lock/Weir 3350 NA NA NA
22 Dosapadu Channel 623 NA NA NA
23 Vyuru Weir 1000 NA NA NA
24 Marrivada Lock/Weir 640 NA NA NA
25 Balliparru Lock/Weir 3300 NA NA NA
26 Polaraju Lock/Weir 645 NA NA NA
27 Bantumalli Lock/Weir 935 NA NA NA
28 Camp Bell Canal 705 NA NA NA
29 Flume U/S of Perikeedu Bridge 825 NA NA NA
30 East Lock (Krishna Eluru Canal) 230 NA NA NA